createdAt,value
2022-10-04T00:00:26.797Z,14.27
2022-10-04T00:03:08.044Z,15.27
2022-10-04T00:05:36.696Z,13.85
2022-10-04T00:08:27.574Z,15.57
2022-10-04T00:11:03.645Z,16.83
2022-10-04T00:13:32.606Z,18.92
2022-10-04T00:16:01.180Z,22.40
2022-10-04T00:18:32.926Z,20.10
2022-10-04T00:21:02.367Z,19.15
2022-10-04T00:23:38.336Z,16.73
2022-10-04T00:26:26.762Z,14.50
2022-10-04T00:28:55.498Z,16.90
2022-10-04T00:31:25.393Z,17.05
2022-10-04T00:33:56.448Z,19.85
2022-10-04T00:36:24.481Z,22.27
2022-10-04T00:39:14.255Z,11.70
2022-10-04T00:41:48.063Z,19.92
2022-10-04T00:46:45.143Z,15.48
2022-10-04T00:49:14.186Z,16.80
2022-10-04T00:51:44.929Z,11.48
2022-10-04T00:54:15.844Z,20.85
2022-10-04T00:56:52.423Z,27.42
2022-10-04T00:59:42.926Z,24.15
2022-10-04T01:02:19.791Z,15.70
2022-10-04T01:04:57.853Z,11.98
2022-10-04T01:07:40.510Z,14.98
2022-10-04T01:10:11.568Z,19.90
2022-10-04T01:12:48.454Z,11.65
2022-10-04T01:15:29.405Z,12.77
2022-10-04T01:18:09.292Z,15.18
2022-10-04T01:20:58.998Z,19.15
2022-10-04T01:23:33.201Z,16.98
2022-10-04T01:26:01.472Z,18.70
2022-10-04T01:28:30.089Z,14.98
2022-10-04T01:30:58.462Z,10.50
2022-10-04T01:33:27.127Z,23.20
2022-10-04T01:35:55.783Z,11.25
2022-10-04T01:38:24.133Z,12.15
2022-10-04T01:40:57.244Z,16.70
2022-10-04T01:43:29.663Z,15.43
2022-10-04T01:46:02.202Z,14.52
2022-10-04T01:48:36.136Z,14.07
2022-10-04T01:51:09.352Z,17.20
2022-10-04T01:53:50.578Z,15.90
2022-10-04T01:56:22.799Z,18.30
2022-10-04T01:58:52.324Z,18.05
2022-10-04T02:01:23.695Z,18.38
2022-10-04T02:03:55.327Z,20.20
2022-10-04T02:06:26.339Z,14.35
2022-10-04T02:08:57.536Z,15.85
2022-10-04T02:11:31.272Z,14.85
2022-10-04T02:14:15.724Z,14.93
2022-10-04T02:16:46.909Z,15.73
2022-10-04T02:19:15.852Z,19.27
2022-10-04T02:21:44.706Z,14.48
2022-10-04T02:24:14.287Z,14.25
2022-10-04T02:26:49.794Z,17.85
2022-10-04T02:29:20.185Z,17.52
2022-10-04T02:32:10.111Z,17.85
2022-10-04T02:34:41.177Z,22.80
2022-10-04T02:37:12.399Z,16.27
2022-10-04T02:39:48.810Z,20.17
2022-10-04T02:42:53.316Z,15.18
2022-10-04T02:45:25.335Z,16.33
2022-10-04T02:48:01.884Z,18.80
2022-10-04T02:50:35.457Z,21.52
2022-10-04T02:53:12.813Z,18.63
2022-10-04T02:55:43.552Z,20.17
2022-10-04T02:58:15.347Z,16.83
2022-10-04T03:00:56.827Z,21.45
2022-10-04T03:03:38.236Z,23.08
2022-10-04T03:06:14.224Z,11.90
2022-10-04T03:08:45.069Z,22.77
2022-10-04T03:11:14.773Z,18.00
2022-10-04T03:13:46.554Z,22.42
2022-10-04T03:16:15.048Z,24.20
2022-10-04T03:18:43.981Z,14.75
2022-10-04T03:21:14.623Z,17.95
2022-10-04T03:23:44.018Z,20.73
2022-10-04T03:26:31.096Z,15.15
2022-10-04T03:28:59.927Z,19.98
2022-10-04T03:31:29.752Z,18.45
2022-10-04T03:33:58.891Z,16.45
2022-10-04T03:36:28.130Z,28.17
2022-10-04T03:38:57.136Z,26.80
2022-10-04T03:41:26.300Z,17.08
2022-10-04T03:43:56.029Z,22.50
2022-10-04T03:46:25.509Z,18.40
2022-10-04T03:48:54.995Z,17.67
2022-10-04T03:51:24.761Z,17.95
2022-10-04T03:53:54.504Z,19.33
2022-10-04T03:56:26.535Z,17.35
2022-10-04T03:58:55.035Z,18.48
2022-10-04T04:01:27.231Z,15.52
2022-10-04T04:04:01.677Z,19.95
2022-10-04T04:06:36.075Z,18.88
2022-10-04T04:09:06.432Z,24.33
2022-10-04T04:11:36.707Z,19.73
2022-10-04T04:14:09.747Z,22.92
2022-10-04T04:16:38.586Z,25.55
2022-10-04T04:19:14.140Z,22.73
2022-10-04T04:21:44.392Z,24.40
2022-10-04T04:24:19.480Z,25.52
2022-10-04T04:29:24.069Z,19.92
2022-10-04T04:32:16.906Z,21.92
2022-10-04T04:34:58.195Z,27.48
2022-10-04T04:37:26.442Z,22.38
2022-10-04T04:39:56.408Z,19.40
2022-10-04T04:42:35.986Z,24.00
2022-10-04T04:45:14.961Z,16.67
2022-10-04T04:47:53.682Z,24.40
2022-10-04T04:50:23.798Z,27.50
2022-10-04T04:53:00.207Z,25.52
2022-10-04T04:56:02.402Z,24.10
2022-10-04T04:58:42.474Z,27.70
2022-10-04T05:01:18.250Z,26.77
2022-10-04T05:04:12.389Z,22.77
2022-10-04T05:06:41.352Z,18.73
2022-10-04T05:09:25.717Z,17.63
2022-10-04T05:11:55.913Z,27.55
2022-10-04T05:14:25.811Z,16.30
2022-10-04T05:16:55.424Z,17.40
2022-10-04T05:19:27.539Z,17.65
2022-10-04T05:21:56.983Z,11.75
2022-10-04T05:24:28.837Z,16.58
2022-10-04T05:27:02.526Z,20.65
2022-10-04T05:29:36.184Z,16.63
2022-10-04T05:32:24.791Z,16.05
2022-10-04T05:34:53.005Z,15.23
2022-10-04T05:37:40.269Z,22.55
2022-10-04T05:40:14.231Z,14.45
2022-10-04T05:42:45.239Z,14.07
2022-10-04T05:45:25.080Z,21.30
2022-10-04T05:47:54.775Z,18.50
2022-10-04T05:50:42.849Z,13.93
2022-10-04T05:53:11.388Z,14.23
2022-10-04T05:55:53.032Z,20.27
2022-10-04T05:58:44.211Z,19.55
2022-10-04T06:01:16.367Z,20.35
2022-10-04T06:03:44.515Z,17.92
2022-10-04T06:06:25.332Z,21.15
2022-10-04T06:09:19.701Z,16.33
2022-10-04T06:12:01.186Z,14.68
2022-10-04T06:14:45.839Z,19.20
2022-10-04T06:17:17.087Z,13.02
2022-10-04T06:20:03.472Z,14.70
2022-10-04T06:22:33.242Z,15.50
2022-10-04T06:25:06.428Z,13.63
2022-10-04T06:27:50.340Z,19.42
2022-10-04T06:30:20.545Z,16.88
2022-10-04T06:33:00.133Z,17.77
2022-10-04T06:35:30.567Z,9.43
2022-10-04T06:37:58.397Z,10.38
2022-10-04T06:40:41.584Z,12.65
2022-10-04T06:43:12.247Z,19.33
2022-10-04T06:45:46.071Z,14.90
2022-10-04T06:50:42.366Z,15.25
2022-10-04T06:53:15.524Z,16.55
2022-10-04T06:55:44.047Z,10.63
2022-10-04T06:58:12.194Z,14.68
2022-10-04T07:00:55.196Z,14.32
2022-10-04T07:03:27.681Z,15.83
2022-10-04T07:05:58.991Z,14.82
2022-10-04T07:08:48.297Z,10.32
2022-10-04T07:11:16.549Z,17.77
2022-10-04T07:14:07.829Z,13.77
2022-10-04T07:16:44.060Z,20.98
2022-10-04T07:19:22.092Z,15.05
2022-10-04T07:21:51.233Z,12.40
2022-10-04T07:24:34.373Z,12.73
2022-10-04T07:27:04.048Z,16.15
2022-10-04T07:29:35.200Z,11.80
2022-10-04T07:32:05.547Z,12.68
2022-10-04T07:34:37.221Z,13.88
2022-10-04T07:37:12.984Z,13.38
2022-10-04T07:39:43.066Z,16.65
2022-10-04T07:42:30.322Z,16.17
2022-10-04T07:45:03.478Z,13.95
2022-10-04T07:47:39.320Z,8.75
2022-10-04T07:50:26.016Z,12.15
2022-10-04T07:53:00.627Z,20.23
2022-10-04T07:55:47.645Z,15.57
2022-10-04T07:58:24.811Z,13.15
2022-10-04T08:00:59.924Z,12.38
2022-10-04T08:03:36.406Z,10.77
2022-10-04T08:06:09.760Z,22.17
2022-10-04T08:08:53.208Z,10.63
2022-10-04T08:11:24.106Z,7.43
2022-10-04T08:13:52.313Z,10.05
2022-10-04T08:16:31.896Z,11.75
2022-10-04T08:19:12.534Z,11.25
2022-10-04T08:21:45.068Z,12.35
2022-10-04T08:24:22.447Z,9.55
2022-10-04T08:27:13.148Z,9.10
2022-10-04T08:29:43.223Z,8.48
2022-10-04T08:32:30.082Z,11.48
2022-10-04T08:35:06.642Z,16.50
2022-10-04T08:37:54.158Z,11.85
2022-10-04T08:40:25.011Z,16.67
2022-10-04T08:43:13.237Z,17.15
2022-10-04T08:45:57.253Z,17.83
2022-10-04T08:49:01.035Z,21.23
2022-10-04T08:51:32.309Z,10.15
2022-10-04T08:54:18.513Z,13.75
2022-10-04T08:56:52.650Z,15.23
2022-10-04T09:02:06.871Z,16.48
2022-10-04T09:04:34.700Z,13.57
2022-10-04T09:07:15.140Z,15.20
2022-10-04T09:09:46.442Z,9.52
2022-10-04T09:12:21.037Z,12.75
2022-10-04T09:14:59.155Z,16.23
2022-10-04T09:17:36.457Z,13.63
2022-10-04T09:20:37.716Z,12.38
2022-10-04T09:23:15.790Z,19.00
2022-10-04T09:26:06.348Z,17.10
2022-10-04T09:28:34.567Z,13.27
2022-10-04T09:31:09.604Z,11.10
2022-10-04T09:33:56.335Z,11.00
2022-10-04T09:36:41.295Z,16.20
2022-10-04T09:39:30.983Z,11.40
2022-10-04T09:42:15.036Z,10.93
2022-10-04T09:44:54.606Z,8.75
2022-10-04T09:47:31.170Z,17.30
2022-10-04T09:50:20.604Z,9.88
2022-10-04T09:52:57.229Z,18.02
2022-10-04T09:55:34.260Z,18.45
2022-10-04T09:58:03.211Z,7.28
2022-10-04T10:00:37.804Z,13.48
2022-10-04T10:03:16.255Z,21.13
2022-10-04T10:05:53.469Z,9.75
2022-10-04T10:08:42.414Z,11.63
2022-10-04T10:11:40.840Z,11.63
2022-10-04T10:14:20.932Z,12.95
2022-10-04T10:16:48.945Z,10.15
2022-10-04T10:19:34.331Z,10.20
2022-10-04T10:22:02.416Z,13.38
2022-10-04T10:24:30.657Z,8.15
2022-10-04T10:27:09.702Z,7.28
2022-10-04T10:29:47.047Z,7.05
2022-10-04T10:32:15.254Z,13.73
2022-10-04T10:34:45.852Z,14.45
2022-10-04T10:37:40.852Z,18.13
2022-10-04T10:40:24.012Z,10.50
2022-10-04T10:42:56.180Z,7.30
2022-10-04T10:45:24.057Z,4.95
2022-10-04T10:47:51.905Z,7.38
2022-10-04T10:50:27.303Z,8.80
2022-10-04T10:53:14.178Z,8.18
2022-10-04T10:55:57.360Z,11.25
2022-10-04T10:58:44.172Z,11.68
2022-10-04T11:01:30.963Z,10.20
2022-10-04T11:04:12.418Z,11.23
2022-10-04T11:06:40.473Z,10.43
2022-10-04T11:09:22.814Z,8.88
2022-10-04T11:12:09.210Z,7.50
2022-10-04T11:14:48.123Z,7.63
2022-10-04T11:17:34.848Z,6.40
2022-10-04T11:20:15.945Z,9.32
2022-10-04T11:22:52.863Z,6.90
2022-10-04T11:25:24.832Z,5.25
2022-10-04T11:28:12.779Z,9.73
2022-10-04T11:30:59.023Z,6.70
2022-10-04T11:33:27.027Z,5.53
2022-10-04T11:36:13.818Z,5.75
2022-10-04T11:39:02.575Z,9.35
2022-10-04T11:41:42.656Z,6.00
2022-10-04T11:44:26.508Z,10.02
2022-10-04T11:47:06.957Z,10.93
2022-10-04T11:49:56.608Z,7.35
2022-10-04T11:52:43.129Z,7.10
2022-10-04T11:55:31.240Z,11.23
2022-10-04T11:57:59.344Z,7.70
2022-10-04T12:00:33.975Z,7.80
2022-10-04T12:03:10.770Z,7.28
2022-10-04T12:05:38.928Z,5.70
2022-10-04T12:08:07.093Z,8.27
2022-10-04T12:10:36.626Z,7.28
2022-10-04T12:13:19.993Z,8.98
2022-10-04T12:16:01.470Z,4.72
2022-10-04T12:18:41.080Z,4.45
2022-10-04T12:21:35.948Z,7.18
2022-10-04T12:24:21.210Z,5.68
2022-10-04T12:26:55.711Z,8.05
2022-10-04T12:29:36.354Z,6.95
2022-10-04T12:32:10.676Z,4.95
2022-10-04T12:34:38.549Z,5.68
2022-10-04T12:37:23.849Z,10.25
2022-10-04T12:40:04.711Z,6.93
2022-10-04T12:42:40.392Z,7.65
2022-10-04T12:45:21.464Z,5.95
2022-10-04T12:47:55.239Z,5.68
2022-10-04T12:52:55.304Z,7.07
2022-10-04T12:55:43.266Z,11.77
2022-10-04T12:58:32.160Z,8.85
2022-10-04T13:01:06.512Z,10.93
2022-10-04T13:03:53.154Z,10.63
2022-10-04T13:06:24.081Z,4.75
2022-10-04T13:09:07.432Z,11.55
2022-10-04T13:11:54.357Z,8.50
2022-10-04T13:14:28.188Z,5.40
2022-10-04T13:19:57.215Z,8.73
2022-10-04T13:22:56.057Z,4.70
2022-10-04T13:25:23.682Z,8.98
2022-10-04T13:27:51.642Z,8.40
2022-10-04T13:30:21.799Z,6.13
2022-10-04T13:33:03.828Z,5.43
2022-10-04T13:35:36.981Z,7.47
2022-10-04T13:38:08.179Z,7.77
2022-10-04T13:40:54.849Z,8.82
2022-10-04T13:43:43.821Z,17.25
2022-10-04T13:46:30.414Z,12.18
2022-10-04T13:49:06.186Z,8.45
2022-10-04T13:51:46.558Z,6.82
2022-10-04T13:54:32.609Z,7.18
2022-10-04T13:57:22.379Z,4.55
2022-10-04T14:00:07.417Z,11.88
2022-10-04T14:02:56.930Z,3.97
2022-10-04T14:05:25.489Z,6.93
2022-10-04T14:08:11.419Z,6.15
2022-10-04T14:10:52.279Z,5.90
2022-10-04T14:13:38.865Z,4.40
2022-10-04T14:16:07.090Z,6.03
2022-10-04T14:18:34.985Z,7.68
2022-10-04T14:21:21.511Z,8.95
2022-10-04T14:24:08.194Z,16.08
2022-10-04T14:26:46.557Z,12.35
2022-10-04T14:29:17.884Z,3.65
2022-10-04T14:32:04.469Z,8.82
2022-10-04T14:34:42.054Z,10.35
2022-10-04T14:37:10.177Z,5.18
2022-10-04T14:40:01.382Z,5.80
2022-10-04T14:42:58.270Z,10.50
2022-10-04T14:45:49.486Z,8.80
2022-10-04T14:48:36.170Z,4.57
2022-10-04T14:51:12.850Z,8.63
2022-10-04T14:54:03.821Z,4.47
2022-10-04T14:56:41.912Z,7.03
2022-10-04T14:59:16.848Z,5.43
2022-10-04T15:02:05.524Z,6.75
2022-10-04T15:04:52.239Z,4.55
2022-10-04T15:07:24.393Z,15.27
2022-10-04T15:10:11.636Z,7.65
2022-10-04T15:13:05.794Z,4.60
2022-10-04T15:15:37.612Z,11.68
2022-10-04T15:18:12.821Z,5.88
2022-10-04T15:20:59.652Z,8.10
2022-10-04T15:23:34.918Z,6.80
2022-10-04T15:26:14.689Z,4.90
2022-10-04T15:28:51.929Z,7.18
2022-10-04T15:31:27.086Z,7.88
2022-10-04T15:34:07.476Z,6.70
2022-10-04T15:36:39.586Z,7.25
2022-10-04T15:39:27.786Z,9.60
2022-10-04T15:41:59.618Z,9.55
2022-10-04T15:44:27.545Z,7.35
2022-10-04T15:47:07.281Z,9.15
2022-10-04T15:49:53.923Z,23.35
2022-10-04T15:52:27.848Z,16.45
2022-10-04T15:55:12.236Z,7.45
2022-10-04T15:57:40.501Z,7.28
2022-10-04T16:00:25.412Z,10.30
2022-10-04T16:03:11.023Z,11.15
2022-10-04T16:05:47.536Z,7.55
2022-10-04T16:08:30.784Z,6.38
2022-10-04T16:11:01.425Z,8.18
2022-10-04T16:14:22.361Z,13.82
2022-10-04T16:17:35.885Z,3.65
2022-10-04T16:20:27.622Z,4.78
2022-10-04T16:23:22.756Z,6.68
2022-10-04T16:25:59.274Z,5.82
2022-10-04T16:28:46.153Z,7.75
2022-10-04T16:31:40.450Z,7.57
2022-10-04T16:34:26.442Z,6.20
2022-10-04T16:37:26.829Z,6.53
2022-10-04T16:40:13.128Z,8.07
2022-10-04T16:42:42.469Z,9.45
2022-10-04T16:45:11.741Z,11.23
2022-10-04T16:47:48.942Z,10.60
2022-10-04T16:50:37.794Z,7.18
2022-10-04T16:53:24.508Z,15.88
2022-10-04T16:55:57.686Z,11.30
2022-10-04T16:58:28.781Z,14.25
2022-10-04T17:01:15.529Z,10.43
2022-10-04T17:03:49.081Z,7.10
2022-10-04T17:06:17.332Z,9.23
2022-10-04T17:08:49.705Z,13.40
2022-10-04T17:11:36.064Z,6.85
2022-10-04T17:14:22.257Z,11.40
2022-10-04T17:16:50.251Z,8.93
2022-10-04T17:19:42.325Z,13.07
2022-10-04T17:22:12.848Z,12.35
2022-10-04T17:24:40.807Z,8.60
2022-10-04T17:27:15.145Z,8.27
2022-10-04T17:29:53.632Z,17.98
2022-10-04T17:32:27.333Z,18.98
2022-10-04T17:35:19.033Z,9.95
2022-10-04T17:37:54.827Z,12.02
2022-10-04T17:40:30.056Z,9.02
2022-10-04T17:43:08.023Z,10.45
2022-10-04T17:45:43.406Z,8.25
2022-10-04T17:48:32.884Z,11.45
2022-10-04T17:51:21.210Z,6.20
2022-10-04T17:54:10.340Z,7.25
2022-10-04T17:56:43.525Z,10.63
2022-10-04T17:59:14.078Z,5.38
2022-10-04T18:01:46.415Z,40.20
2022-10-04T18:04:23.772Z,22.50
2022-10-04T18:06:59.669Z,12.40
2022-10-04T18:09:28.152Z,12.00
2022-10-04T18:11:59.129Z,10.05
2022-10-04T18:14:31.065Z,7.63
2022-10-04T18:17:03.269Z,9.80
2022-10-04T18:19:41.728Z,14.40
2022-10-04T18:22:14.960Z,16.70
2022-10-04T18:24:48.055Z,17.70
2022-10-04T18:27:21.889Z,13.68
2022-10-04T18:30:03.292Z,8.48
2022-10-04T18:32:34.894Z,10.73
2022-10-04T18:35:21.754Z,4.93
2022-10-04T18:37:50.916Z,11.13
2022-10-04T18:40:19.551Z,10.48
2022-10-04T18:42:53.374Z,9.95
2022-10-04T18:45:23.842Z,14.30
2022-10-04T18:47:53.655Z,10.05
2022-10-04T18:50:21.794Z,16.90
2022-10-04T18:53:13.490Z,11.48
2022-10-04T18:56:00.025Z,9.73
2022-10-04T18:58:55.528Z,11.98
2022-10-04T19:02:01.137Z,8.68
2022-10-04T19:04:50.220Z,16.88
2022-10-04T19:07:18.384Z,15.18
2022-10-04T19:09:46.477Z,14.90
2022-10-04T19:12:17.591Z,20.80
2022-10-04T19:14:53.511Z,38.38
2022-10-04T19:17:36.788Z,40.90
2022-10-04T19:20:18.692Z,21.13
2022-10-04T19:22:59.571Z,19.33
2022-10-04T19:25:39.309Z,18.45
2022-10-04T19:28:21.145Z,18.52
2022-10-04T19:31:00.922Z,18.25
2022-10-04T19:33:35.499Z,18.20
2022-10-04T19:36:22.914Z,18.58
2022-10-04T19:39:12.527Z,19.20
2022-10-04T19:41:59.732Z,34.97
2022-10-04T19:45:03.499Z,19.65
2022-10-04T19:47:51.142Z,18.75
2022-10-04T19:50:21.102Z,28.00
2022-10-04T19:52:54.359Z,15.90
2022-10-04T19:55:24.991Z,18.15
2022-10-04T19:58:04.963Z,14.15
2022-10-04T20:00:35.691Z,12.95
2022-10-04T20:03:11.016Z,10.48
2022-10-04T20:05:57.782Z,12.00
2022-10-04T20:08:45.163Z,14.43
2022-10-04T20:11:22.849Z,12.52
2022-10-04T20:14:07.134Z,8.32
2022-10-04T20:16:47.834Z,8.70
2022-10-04T20:19:22.486Z,13.40
2022-10-04T20:21:51.049Z,11.82
2022-10-04T20:24:39.230Z,20.10
2022-10-04T20:27:27.903Z,10.63
2022-10-04T20:29:56.660Z,13.57
2022-10-04T20:32:27.875Z,11.98
2022-10-04T20:34:56.589Z,8.38
2022-10-04T20:38:27.416Z,10.25
2022-10-04T20:40:50.213Z,12.60
2022-10-04T20:43:18.389Z,10.88
2022-10-04T20:45:47.392Z,12.63
2022-10-04T20:48:18.335Z,16.25
2022-10-04T20:50:49.467Z,10.85
2022-10-04T20:53:22.110Z,9.75
2022-10-04T20:55:51.398Z,9.38
2022-10-04T20:58:32.197Z,15.32
2022-10-04T21:01:02.706Z,11.77
2022-10-04T21:03:38.463Z,11.13
2022-10-04T21:06:09.205Z,11.68
2022-10-04T21:08:38.589Z,12.13
2022-10-04T21:11:06.931Z,19.85
2022-10-04T21:13:55.308Z,18.55
2022-10-04T21:16:41.986Z,9.45
2022-10-04T21:19:29.370Z,13.82
2022-10-04T21:21:58.462Z,12.05
2022-10-04T21:24:35.602Z,10.15
2022-10-04T21:27:04.085Z,14.95
2022-10-04T21:29:32.396Z,16.92
2022-10-04T21:32:00.804Z,18.95
2022-10-04T21:34:51.958Z,16.15
2022-10-04T21:37:19.035Z,13.82
2022-10-04T21:39:47.990Z,17.88
2022-10-04T21:42:16.816Z,13.95
2022-10-04T21:44:45.539Z,11.52
2022-10-04T21:47:13.780Z,24.40
2022-10-04T21:49:55.059Z,14.48
2022-10-04T21:52:23.421Z,16.55
2022-10-04T21:54:54.287Z,13.35
2022-10-04T21:57:24.144Z,12.38
2022-10-04T21:59:53.537Z,11.43
2022-10-04T22:02:21.710Z,21.20
2022-10-04T22:04:50.315Z,11.43
2022-10-04T22:07:19.367Z,13.70
2022-10-04T22:09:50.901Z,11.45
2022-10-04T22:12:19.550Z,11.88
2022-10-04T22:14:50.019Z,13.55
2022-10-04T22:17:18.361Z,17.48
2022-10-04T22:19:52.923Z,11.45
2022-10-04T22:22:22.289Z,13.98
2022-10-04T22:24:52.777Z,12.32
2022-10-04T22:27:24.985Z,13.52
2022-10-04T22:29:55.993Z,11.88
2022-10-04T22:32:30.751Z,11.13
2022-10-04T22:35:01.360Z,13.05
2022-10-04T22:37:36.517Z,12.85
2022-10-04T22:40:05.612Z,15.73
2022-10-04T22:42:45.886Z,11.20
2022-10-04T22:45:44.282Z,17.58
2022-10-04T22:48:16.248Z,16.42
2022-10-04T22:50:45.966Z,8.38
2022-10-04T22:53:17.036Z,13.40
2022-10-04T22:55:47.121Z,9.80
2022-10-04T22:58:20.956Z,14.50
2022-10-04T23:00:50.240Z,12.02
2022-10-04T23:03:31.801Z,12.93
2022-10-04T23:06:03.946Z,9.65
2022-10-04T23:08:37.120Z,11.90
2022-10-04T23:11:06.451Z,14.07
2022-10-04T23:13:36.796Z,10.43
2022-10-04T23:16:14.837Z,10.05
2022-10-04T23:18:45.821Z,11.02
2022-10-04T23:21:21.637Z,14.52
2022-10-04T23:23:52.792Z,10.70
2022-10-04T23:26:25.584Z,10.65
2022-10-04T23:28:55.062Z,15.50
2022-10-04T23:31:25.053Z,11.70
2022-10-04T23:33:54.349Z,14.43
2022-10-04T23:36:24.741Z,13.93
2022-10-04T23:38:55.655Z,11.15
2022-10-04T23:41:24.106Z,12.10
2022-10-04T23:43:52.720Z,9.18
2022-10-04T23:46:22.997Z,12.95
2022-10-04T23:48:51.656Z,13.60
2022-10-04T23:51:20.273Z,11.90
2022-10-04T23:53:50.769Z,11.48
2022-10-04T23:56:24.732Z,11.00
2022-10-04T23:58:55.973Z,12.75
